sensor_id;sensor_type;location;lat;lon;timestamp;temperature;humidity
3816;DHT22;1923;48.154;11.536;2024-02-26T00:02:13;5.20;99.90
3816;DHT22;1923;48.154;11.536;2024-02-26T00:04:41;5.10;99.90
3816;DHT22;1923;48.154;11.536;2024-02-26T00:07:09;5.10;99.90
3816;DHT22;1923;48.154;11.536;2024-02-26T00:09:38;5.10;99.90
3816;DHT22;1923;48.154;11.536;2024-02-26T00:12:06;5.10;99.90
3816;DHT22;1923;48.154;11.536;2024-02-26T00:14:35;5.20;99.90
3816;DHT22;1923;48.154;11.536;2024-02-26T00:17:04;5.20;99.90
3816;DHT22;1923;48.154;11.536;2024-02-26T00:19:32;5.10;99.90
3816;DHT22;1923;48.154;11.536;2024-02-26T00:22:00;5.10;99.90
3816;DHT22;1923;48.154;11.536;2024-02-26T00:24:28;5.10;99.90
3816;DHT22;1923;48.154;11.536;2024-02-26T00:26:56;5.20;99.90
3816;DHT22;1923;48.154;11.536;2024-02-26T00:29:24;5.20;99.90
3816;DHT22;1923;48.154;11.536;2024-02-26T00:31:53;5.20;99.90
3816;DHT22;1923;48.154;11.536;2024-02-26T00:34:22;5.30;99.90
3816;DHT22;1923;48.154;11.536;2024-02-26T00:36:50;5.20;99.90
3816;DHT22;1923;48.154;11.536;2024-02-26T00:39:19;5.20;99.90
3816;DHT22;1923;48.154;11.536;2024-02-26T00:41:47;5.10;99.90
3816;DHT22;1923;48.154;11.536;2024-02-26T00:44:15;5.20;99.90
3816;DHT22;1923;48.154;11.536;2024-02-26T00:46:43;5.30;99.90
3816;DHT22;1923;48.154;11.536;2024-02-26T00:49:11;5.30;99.90
3816;DHT22;1923;48.154;11.536;2024-02-26T00:51:41;5.00;99.90
3816;DHT22;1923;48.154;11.536;2024-02-26T00:54:09;5.10;99.90
3816;DHT22;1923;48.154;11.536;2024-02-26T00:56:37;5.20;99.90
3816;DHT22;1923;48.154;11.536;2024-02-26T00:59:05;5.20;99.90
3816;DHT22;1923;48.154;11.536;2024-02-26T01:01:33;5.20;99.90
3816;DHT22;1923;48.154;11.536;2024-02-26T01:04:01;5.20;99.90
3816;DHT22;1923;48.154;11.536;2024-02-26T01:06:30;5.20;99.90
3816;DHT22;1923;48.154;11.536;2024-02-26T01:08:59;5.10;99.90
3816;DHT22;1923;48.154;11.536;2024-02-26T01:11:27;5.00;99.90
3816;DHT22;1923;48.154;11.536;2024-02-26T01:13:55;5.10;99.90
3816;DHT22;1923;48.154;11.536;2024-02-26T01:16:24;5.10;99.90
3816;DHT22;1923;48.154;11.536;2024-02-26T01:18:52;5.10;99.90
3816;DHT22;1923;48.154;11.536;2024-02-26T01:21:20;5.00;99.90
3816;DHT22;1923;48.154;11.536;2024-02-26T01:23:48;5.00;99.90
3816;DHT22;1923;48.154;11.536;2024-02-26T01:26:18;5.10;99.90
3816;DHT22;1923;48.154;11.536;2024-02-26T01:28:46;4.90;99.90
3816;DHT22;1923;48.154;11.536;2024-02-26T01:31:14;4.90;99.90
3816;DHT22;1923;48.154;11.536;2024-02-26T01:33:42;4.90;99.90
3816;DHT22;1923;48.154;11.536;2024-02-26T01:36:10;4.80;99.90
3816;DHT22;1923;48.154;11.536;2024-02-26T01:38:38;4.70;99.90
3816;DHT22;1923;48.154;11.536;2024-02-26T01:41:06;4.80;99.90
3816;DHT22;1923;48.154;11.536;2024-02-26T01:43:36;4.80;99.90
3816;DHT22;1923;48.154;11.536;2024-02-26T01:46:04;4.90;99.90
3816;DHT22;1923;48.154;11.536;2024-02-26T01:48:32;5.00;99.90
3816;DHT22;1923;48.154;11.536;2024-02-26T01:51:01;4.90;99.90
3816;DHT22;1923;48.154;11.536;2024-02-26T01:53:29;4.80;99.90
3816;DHT22;1923;48.154;11.536;2024-02-26T01:55:58;4.90;99.90
3816;DHT22;1923;48.154;11.536;2024-02-26T01:58:26;4.90;99.90
3816;DHT22;1923;48.154;11.536;2024-02-26T02:00:56;5.00;99.90
3816;DHT22;1923;48.154;11.536;2024-02-26T02:03:24;5.00;99.90
3816;DHT22;1923;48.154;11.536;2024-02-26T02:05:53;4.90;99.90
3816;DHT22;1923;48.154;11.536;2024-02-26T02:08:22;4.90;99.90
3816;DHT22;1923;48.154;11.536;2024-02-26T02:10:50;5.00;99.90
3816;DHT22;1923;48.154;11.536;2024-02-26T02:13:18;5.00;99.90
3816;DHT22;1923;48.154;11.536;2024-02-26T02:15:46;5.00;99.90
3816;DHT22;1923;48.154;11.536;2024-02-26T02:18:16;5.00;99.90
3816;DHT22;1923;48.154;11.536;2024-02-26T02:20:45;4.90;99.90
3816;DHT22;1923;48.154;11.536;2024-02-26T02:23:13;4.80;99.90
3816;DHT22;1923;48.154;11.536;2024-02-26T02:25:41;4.90;99.90
3816;DHT22;1923;48.154;11.536;2024-02-26T02:28:09;4.90;99.90
3816;DHT22;1923;48.154;11.536;2024-02-26T02:30:38;4.80;99.90
3816;DHT22;1923;48.154;11.536;2024-02-26T02:33:07;4.90;99.90
3816;DHT22;1923;48.154;11.536;2024-02-26T02:35:35;4.80;99.90
3816;DHT22;1923;48.154;11.536;2024-02-26T02:38:04;4.80;99.90
3816;DHT22;1923;48.154;11.536;2024-02-26T02:40:33;5.00;99.90
3816;DHT22;1923;48.154;11.536;2024-02-26T02:43:01;5.00;99.90
3816;DHT22;1923;48.154;11.536;2024-02-26T02:45:29;4.90;99.90
3816;DHT22;1923;48.154;11.536;2024-02-26T02:47:57;4.90;99.90
3816;DHT22;1923;48.154;11.536;2024-02-26T02:50:25;4.90;99.90
3816;DHT22;1923;48.154;11.536;2024-02-26T02:52:55;4.90;99.90
3816;DHT22;1923;48.154;11.536;2024-02-26T02:55:25;4.90;99.90
3816;DHT22;1923;48.154;11.536;2024-02-26T02:57:53;4.90;99.90
3816;DHT22;1923;48.154;11.536;2024-02-26T03:00:21;5.00;99.90
3816;DHT22;1923;48.154;11.536;2024-02-26T03:02:50;4.90;99.90
3816;DHT22;1923;48.154;11.536;2024-02-26T03:05:18;4.80;99.90
3816;DHT22;1923;48.154;11.536;2024-02-26T03:07:46;4.80;99.90
3816;DHT22;1923;48.154;11.536;2024-02-26T03:10:14;4.80;99.90
3816;DHT22;1923;48.154;11.536;2024-02-26T03:12:44;4.80;99.90
3816;DHT22;1923;48.154;11.536;2024-02-26T03:15:12;4.70;99.90
3816;DHT22;1923;48.154;11.536;2024-02-26T03:17:40;4.80;99.90
3816;DHT22;1923;48.154;11.536;2024-02-26T03:20:09;4.70;99.90
3816;DHT22;1923;48.154;11.536;2024-02-26T03:22:38;4.80;99.90
3816;DHT22;1923;48.154;11.536;2024-02-26T03:25:08;4.80;99.90
3816;DHT22;1923;48.154;11.536;2024-02-26T03:27:36;4.80;99.90
3816;DHT22;1923;48.154;11.536;2024-02-26T03:30:06;4.80;99.90
3816;DHT22;1923;48.154;11.536;2024-02-26T03:32:35;4.80;99.90
3816;DHT22;1923;48.154;11.536;2024-02-26T03:35:03;4.80;99.90
3816;DHT22;1923;48.154;11.536;2024-02-26T03:37:31;4.90;99.90
3816;DHT22;1923;48.154;11.536;2024-02-26T03:39:59;4.90;99.90
3816;DHT22;1923;48.154;11.536;2024-02-26T03:42:28;5.00;99.90
3816;DHT22;1923;48.154;11.536;2024-02-26T03:44:56;5.00;99.90
3816;DHT22;1923;48.154;11.536;2024-02-26T03:47:25;5.00;99.90
3816;DHT22;1923;48.154;11.536;2024-02-26T03:49:53;5.00;99.90
3816;DHT22;1923;48.154;11.536;2024-02-26T03:52:21;5.00;99.90
3816;DHT22;1923;48.154;11.536;2024-02-26T03:54:49;5.10;99.90
3816;DHT22;1923;48.154;11.536;2024-02-26T03:57:17;4.90;99.90
3816;DHT22;1923;48.154;11.536;2024-02-26T03:59:45;4.90;99.90
3816;DHT22;1923;48.154;11.536;2024-02-26T04:02:13;4.90;99.90
3816;DHT22;1923;48.154;11.536;2024-02-26T04:04:43;4.90;99.90
3816;DHT22;1923;48.154;11.536;2024-02-26T04:07:11;4.90;99.90
3816;DHT22;1923;48.154;11.536;2024-02-26T04:09:40;4.90;99.90
3816;DHT22;1923;48.154;11.536;2024-02-26T04:12:08;4.90;99.90
3816;DHT22;1923;48.154;11.536;2024-02-26T04:14:37;4.90;99.90
3816;DHT22;1923;48.154;11.536;2024-02-26T04:17:05;4.90;99.90
3816;DHT22;1923;48.154;11.536;2024-02-26T04:19:33;4.90;99.90
3816;DHT22;1923;48.154;11.536;2024-02-26T04:22:02;4.90;99.90
3816;DHT22;1923;48.154;11.536;2024-02-26T04:24:31;5.10;99.90
3816;DHT22;1923;48.154;11.536;2024-02-26T04:26:58;5.00;99.90
3816;DHT22;1923;48.154;11.536;2024-02-26T04:29:27;5.00;99.90
3816;DHT22;1923;48.154;11.536;2024-02-26T04:31:55;5.00;99.90
3816;DHT22;1923;48.154;11.536;2024-02-26T04:34:23;5.10;99.90
3816;DHT22;1923;48.154;11.536;2024-02-26T04:36:52;5.10;99.90
3816;DHT22;1923;48.154;11.536;2024-02-26T04:39:21;5.10;99.90
3816;DHT22;1923;48.154;11.536;2024-02-26T04:41:49;5.00;99.90
3816;DHT22;1923;48.154;11.536;2024-02-26T04:44:18;5.00;99.90
3816;DHT22;1923;48.154;11.536;2024-02-26T04:46:46;5.00;99.90
3816;DHT22;1923;48.154;11.536;2024-02-26T04:49:14;5.00;99.90
3816;DHT22;1923;48.154;11.536;2024-02-26T04:51:42;5.00;99.90
3816;DHT22;1923;48.154;11.536;2024-02-26T04:54:10;5.00;99.90
3816;DHT22;1923;48.154;11.536;2024-02-26T04:56:40;4.90;99.90
3816;DHT22;1923;48.154;11.536;2024-02-26T04:59:08;5.00;99.90
3816;DHT22;1923;48.154;11.536;2024-02-26T05:01:36;5.00;99.90
3816;DHT22;1923;48.154;11.536;2024-02-26T05:04:04;5.00;99.90
3816;DHT22;1923;48.154;11.536;2024-02-26T05:06:33;5.00;99.90
3816;DHT22;1923;48.154;11.536;2024-02-26T05:09:01;5.00;99.90
3816;DHT22;1923;48.154;11.536;2024-02-26T05:11:30;4.90;99.90
3816;DHT22;1923;48.154;11.536;2024-02-26T05:14:00;4.90;99.90
3816;DHT22;1923;48.154;11.536;2024-02-26T05:16:28;5.00;99.90
3816;DHT22;1923;48.154;11.536;2024-02-26T05:18:57;5.00;99.90
3816;DHT22;1923;48.154;11.536;2024-02-26T05:21:26;5.10;99.90
3816;DHT22;1923;48.154;11.536;2024-02-26T05:23:54;5.20;99.90
3816;DHT22;1923;48.154;11.536;2024-02-26T05:26:22;5.20;99.90
3816;DHT22;1923;48.154;11.536;2024-02-26T05:28:51;5.10;99.90
3816;DHT22;1923;48.154;11.536;2024-02-26T05:31:20;5.20;99.90
3816;DHT22;1923;48.154;11.536;2024-02-26T05:33:48;5.20;99.90
3816;DHT22;1923;48.154;11.536;2024-02-26T05:36:19;5.20;99.90
3816;DHT22;1923;48.154;11.536;2024-02-26T05:38:49;5.20;99.90
3816;DHT22;1923;48.154;11.536;2024-02-26T05:41:17;5.20;99.90
3816;DHT22;1923;48.154;11.536;2024-02-26T05:43:49;5.20;99.90
3816;DHT22;1923;48.154;11.536;2024-02-26T05:46:18;5.20;99.90
3816;DHT22;1923;48.154;11.536;2024-02-26T05:48:48;5.20;99.90
3816;DHT22;1923;48.154;11.536;2024-02-26T05:51:16;5.20;99.90
3816;DHT22;1923;48.154;11.536;2024-02-26T05:53:45;5.20;99.90
3816;DHT22;1923;48.154;11.536;2024-02-26T05:56:13;5.30;99.90
3816;DHT22;1923;48.154;11.536;2024-02-26T05:58:41;5.30;99.90
3816;DHT22;1923;48.154;11.536;2024-02-26T06:01:10;5.30;99.90
3816;DHT22;1923;48.154;11.536;2024-02-26T06:03:38;5.40;99.90
3816;DHT22;1923;48.154;11.536;2024-02-26T06:06:07;5.50;99.90
3816;DHT22;1923;48.154;11.536;2024-02-26T06:08:36;5.60;99.90
3816;DHT22;1923;48.154;11.536;2024-02-26T06:11:05;5.60;99.90
3816;DHT22;1923;48.154;11.536;2024-02-26T06:13:34;5.60;99.90
3816;DHT22;1923;48.154;11.536;2024-02-26T06:16:02;5.60;99.90
3816;DHT22;1923;48.154;11.536;2024-02-26T06:18:30;5.70;99.90
3816;DHT22;1923;48.154;11.536;2024-02-26T06:20:59;5.80;99.90
3816;DHT22;1923;48.154;11.536;2024-02-26T06:23:28;5.90;99.90
3816;DHT22;1923;48.154;11.536;2024-02-26T06:25:56;6.00;99.90
3816;DHT22;1923;48.154;11.536;2024-02-26T06:28:24;6.10;99.90
3816;DHT22;1923;48.154;11.536;2024-02-26T06:30:53;6.10;99.90
3816;DHT22;1923;48.154;11.536;2024-02-26T06:33:21;6.20;99.90
3816;DHT22;1923;48.154;11.536;2024-02-26T06:35:49;6.20;99.90
3816;DHT22;1923;48.154;11.536;2024-02-26T06:38:17;6.30;99.90
3816;DHT22;1923;48.154;11.536;2024-02-26T06:40:46;6.50;99.90
3816;DHT22;1923;48.154;11.536;2024-02-26T06:43:14;6.50;99.90
3816;DHT22;1923;48.154;11.536;2024-02-26T06:45:42;6.60;99.90
3816;DHT22;1923;48.154;11.536;2024-02-26T06:48:10;6.50;99.90
3816;DHT22;1923;48.154;11.536;2024-02-26T06:50:39;6.60;99.90
3816;DHT22;1923;48.154;11.536;2024-02-26T06:53:08;6.80;99.90
3816;DHT22;1923;48.154;11.536;2024-02-26T06:55:36;6.90;99.90
3816;DHT22;1923;48.154;11.536;2024-02-26T06:58:08;6.90;99.90
3816;DHT22;1923;48.154;11.536;2024-02-26T07:00:36;7.00;99.90
3816;DHT22;1923;48.154;11.536;2024-02-26T07:03:05;7.00;99.90
3816;DHT22;1923;48.154;11.536;2024-02-26T07:05:33;7.10;99.90
3816;DHT22;1923;48.154;11.536;2024-02-26T07:08:01;7.10;99.90
3816;DHT22;1923;48.154;11.536;2024-02-26T07:10:29;7.20;99.90
3816;DHT22;1923;48.154;11.536;2024-02-26T07:12:57;7.20;99.90
3816;DHT22;1923;48.154;11.536;2024-02-26T07:15:27;7.20;99.90
3816;DHT22;1923;48.154;11.536;2024-02-26T07:17:55;7.30;99.90
3816;DHT22;1923;48.154;11.536;2024-02-26T07:20:23;7.50;99.90
3816;DHT22;1923;48.154;11.536;2024-02-26T07:22:51;7.40;99.90
3816;DHT22;1923;48.154;11.536;2024-02-26T07:25:19;7.30;99.90
3816;DHT22;1923;48.154;11.536;2024-02-26T07:27:47;7.50;99.90
3816;DHT22;1923;48.154;11.536;2024-02-26T07:30:16;7.30;99.90
3816;DHT22;1923;48.154;11.536;2024-02-26T07:32:46;7.40;99.90
3816;DHT22;1923;48.154;11.536;2024-02-26T07:35:17;7.50;99.90
3816;DHT22;1923;48.154;11.536;2024-02-26T07:37:48;7.60;99.90
3816;DHT22;1923;48.154;11.536;2024-02-26T07:40:16;7.80;99.90
3816;DHT22;1923;48.154;11.536;2024-02-26T07:42:44;7.90;99.90
3816;DHT22;1923;48.154;11.536;2024-02-26T07:45:12;8.00;99.90
3816;DHT22;1923;48.154;11.536;2024-02-26T07:47:42;8.00;99.90
3816;DHT22;1923;48.154;11.536;2024-02-26T07:50:12;8.10;99.90
3816;DHT22;1923;48.154;11.536;2024-02-26T07:52:40;8.20;99.90
3816;DHT22;1923;48.154;11.536;2024-02-26T07:55:08;8.20;99.90
3816;DHT22;1923;48.154;11.536;2024-02-26T07:57:36;8.20;99.90
3816;DHT22;1923;48.154;11.536;2024-02-26T08:00:06;8.30;99.90
3816;DHT22;1923;48.154;11.536;2024-02-26T08:02:36;8.40;99.90
3816;DHT22;1923;48.154;11.536;2024-02-26T08:05:04;8.50;99.90
3816;DHT22;1923;48.154;11.536;2024-02-26T08:07:34;8.20;99.90
3816;DHT22;1923;48.154;11.536;2024-02-26T08:10:02;8.40;99.90
3816;DHT22;1923;48.154;11.536;2024-02-26T08:12:30;8.20;99.90
3816;DHT22;1923;48.154;11.536;2024-02-26T08:14:59;8.10;99.90
3816;DHT22;1923;48.154;11.536;2024-02-26T08:17:28;8.00;99.90
3816;DHT22;1923;48.154;11.536;2024-02-26T08:19:56;8.00;99.90
3816;DHT22;1923;48.154;11.536;2024-02-26T08:22:24;8.30;99.90
3816;DHT22;1923;48.154;11.536;2024-02-26T08:24:53;8.40;99.90
3816;DHT22;1923;48.154;11.536;2024-02-26T08:27:21;8.70;99.90
3816;DHT22;1923;48.154;11.536;2024-02-26T08:29:51;9.10;99.90
3816;DHT22;1923;48.154;11.536;2024-02-26T08:32:19;9.30;99.90
3816;DHT22;1923;48.154;11.536;2024-02-26T08:34:47;9.50;99.90
3816;DHT22;1923;48.154;11.536;2024-02-26T08:37:16;9.70;99.90
3816;DHT22;1923;48.154;11.536;2024-02-26T08:39:44;10.00;99.90
3816;DHT22;1923;48.154;11.536;2024-02-26T08:42:14;10.30;99.90
3816;DHT22;1923;48.154;11.536;2024-02-26T08:44:42;10.30;99.90
3816;DHT22;1923;48.154;11.536;2024-02-26T08:47:10;10.60;99.90
3816;DHT22;1923;48.154;11.536;2024-02-26T08:49:42;10.80;99.90
3816;DHT22;1923;48.154;11.536;2024-02-26T08:52:10;10.90;99.90
3816;DHT22;1923;48.154;11.536;2024-02-26T08:54:38;11.10;99.90
3816;DHT22;1923;48.154;11.536;2024-02-26T08:57:07;11.30;99.90
3816;DHT22;1923;48.154;11.536;2024-02-26T08:59:36;11.20;99.90
3816;DHT22;1923;48.154;11.536;2024-02-26T09:02:05;10.90;99.90
3816;DHT22;1923;48.154;11.536;2024-02-26T09:04:35;10.70;99.90
3816;DHT22;1923;48.154;11.536;2024-02-26T09:07:03;10.70;99.90
3816;DHT22;1923;48.154;11.536;2024-02-26T09:09:31;10.60;99.90
3816;DHT22;1923;48.154;11.536;2024-02-26T09:11:59;10.40;99.90
3816;DHT22;1923;48.154;11.536;2024-02-26T09:14:27;10.30;99.90
3816;DHT22;1923;48.154;11.536;2024-02-26T09:16:57;10.20;99.90
3816;DHT22;1923;48.154;11.536;2024-02-26T09:19:26;10.30;99.90
3816;DHT22;1923;48.154;11.536;2024-02-26T09:21:54;10.30;99.90
3816;DHT22;1923;48.154;11.536;2024-02-26T09:24:24;10.20;99.90
3816;DHT22;1923;48.154;11.536;2024-02-26T09:26:56;10.00;99.90
3816;DHT22;1923;48.154;11.536;2024-02-26T09:29:24;10.20;99.90
3816;DHT22;1923;48.154;11.536;2024-02-26T09:31:53;10.40;99.90
3816;DHT22;1923;48.154;11.536;2024-02-26T09:34:22;10.50;99.90
3816;DHT22;1923;48.154;11.536;2024-02-26T09:36:50;10.70;99.90
3816;DHT22;1923;48.154;11.536;2024-02-26T09:39:18;10.80;99.90
3816;DHT22;1923;48.154;11.536;2024-02-26T09:41:49;11.00;99.90
3816;DHT22;1923;48.154;11.536;2024-02-26T09:44:19;11.50;99.90
3816;DHT22;1923;48.154;11.536;2024-02-26T09:46:48;11.80;99.40
3816;DHT22;1923;48.154;11.536;2024-02-26T09:49:18;12.40;99.10
3816;DHT22;1923;48.154;11.536;2024-02-26T09:51:49;12.60;98.80
3816;DHT22;1923;48.154;11.536;2024-02-26T09:54:18;13.00;97.90
3816;DHT22;1923;48.154;11.536;2024-02-26T09:56:48;13.80;96.80
3816;DHT22;1923;48.154;11.536;2024-02-26T09:59:31;14.30;95.70
3816;DHT22;1923;48.154;11.536;2024-02-26T10:02:05;14.20;94.50
3816;DHT22;1923;48.154;11.536;2024-02-26T10:04:33;14.80;94.10
3816;DHT22;1923;48.154;11.536;2024-02-26T10:07:04;15.00;93.00
3816;DHT22;1923;48.154;11.536;2024-02-26T10:09:33;14.40;92.90
3816;DHT22;1923;48.154;11.536;2024-02-26T10:12:01;13.90;93.60
3816;DHT22;1923;48.154;11.536;2024-02-26T10:14:30;13.50;94.20
3816;DHT22;1923;48.154;11.536;2024-02-26T10:16:59;13.10;94.30
3816;DHT22;1923;48.154;11.536;2024-02-26T10:19:28;13.00;94.30
3816;DHT22;1923;48.154;11.536;2024-02-26T10:22:01;12.70;95.20
3816;DHT22;1923;48.154;11.536;2024-02-26T10:24:31;12.40;95.40
3816;DHT22;1923;48.154;11.536;2024-02-26T10:27:00;12.10;95.80
3816;DHT22;1923;48.154;11.536;2024-02-26T10:29:29;12.40;96.10
3816;DHT22;1923;48.154;11.536;2024-02-26T10:31:57;12.70;96.20
3816;DHT22;1923;48.154;11.536;2024-02-26T10:34:26;12.60;95.30
3816;DHT22;1923;48.154;11.536;2024-02-26T10:36:56;12.70;95.30
3816;DHT22;1923;48.154;11.536;2024-02-26T10:39:24;12.70;95.10
3816;DHT22;1923;48.154;11.536;2024-02-26T10:41:53;12.40;94.70
3816;DHT22;1923;48.154;11.536;2024-02-26T10:44:21;12.50;94.80
3816;DHT22;1923;48.154;11.536;2024-02-26T10:46:49;12.40;94.90
3816;DHT22;1923;48.154;11.536;2024-02-26T10:49:18;12.50;95.10
3816;DHT22;1923;48.154;11.536;2024-02-26T10:51:54;12.50;94.50
3816;DHT22;1923;48.154;11.536;2024-02-26T10:54:25;12.80;95.00
3816;DHT22;1923;48.154;11.536;2024-02-26T10:56:56;12.70;95.20
3816;DHT22;1923;48.154;11.536;2024-02-26T10:59:26;12.90;95.00
3816;DHT22;1923;48.154;11.536;2024-02-26T11:01:55;13.30;95.20
3816;DHT22;1923;48.154;11.536;2024-02-26T11:04:24;13.30;94.70
3816;DHT22;1923;48.154;11.536;2024-02-26T11:06:57;13.80;93.60
3816;DHT22;1923;48.154;11.536;2024-02-26T11:09:27;14.40;91.90
3816;DHT22;1923;48.154;11.536;2024-02-26T11:11:58;14.80;91.30
3816;DHT22;1923;48.154;11.536;2024-02-26T11:14:29;15.30;90.60
3816;DHT22;1923;48.154;11.536;2024-02-26T11:16:58;15.90;90.00
3816;DHT22;1923;48.154;11.536;2024-02-26T11:19:28;16.40;90.20
3816;DHT22;1923;48.154;11.536;2024-02-26T11:22:00;16.60;84.50
3816;DHT22;1923;48.154;11.536;2024-02-26T11:24:44;16.50;84.20
3816;DHT22;1923;48.154;11.536;2024-02-26T11:27:16;16.80;83.80
3816;DHT22;1923;48.154;11.536;2024-02-26T11:29:49;17.40;81.40
3816;DHT22;1923;48.154;11.536;2024-02-26T11:32:19;18.00;79.80
3816;DHT22;1923;48.154;11.536;2024-02-26T11:34:47;16.90;79.60
3816;DHT22;1923;48.154;11.536;2024-02-26T11:37:17;16.80;80.80
3816;DHT22;1923;48.154;11.536;2024-02-26T11:39:45;16.10;81.10
3816;DHT22;1923;48.154;11.536;2024-02-26T11:42:15;16.20;81.80
3816;DHT22;1923;48.154;11.536;2024-02-26T11:44:44;16.00;82.50
3816;DHT22;1923;48.154;11.536;2024-02-26T11:47:13;16.00;82.00
3816;DHT22;1923;48.154;11.536;2024-02-26T11:49:41;15.70;82.60
3816;DHT22;1923;48.154;11.536;2024-02-26T11:52:10;15.80;81.30
3816;DHT22;1923;48.154;11.536;2024-02-26T11:54:39;15.70;79.40
3816;DHT22;1923;48.154;11.536;2024-02-26T11:57:28;15.70;79.80
3816;DHT22;1923;48.154;11.536;2024-02-26T12:00:11;15.50;79.80
3816;DHT22;1923;48.154;11.536;2024-02-26T12:02:46;15.20;79.90
3816;DHT22;1923;48.154;11.536;2024-02-26T12:05:16;15.40;81.70
3816;DHT22;1923;48.154;11.536;2024-02-26T12:07:48;15.30;81.10
3816;DHT22;1923;48.154;11.536;2024-02-26T12:10:26;15.30;80.40
3816;DHT22;1923;48.154;11.536;2024-02-26T12:13:00;15.20;80.80
3816;DHT22;1923;48.154;11.536;2024-02-26T12:15:32;15.10;82.60
3816;DHT22;1923;48.154;11.536;2024-02-26T12:18:05;15.00;82.60
3816;DHT22;1923;48.154;11.536;2024-02-26T12:20:34;14.90;83.20
3816;DHT22;1923;48.154;11.536;2024-02-26T12:23:04;14.60;83.30
3816;DHT22;1923;48.154;11.536;2024-02-26T12:25:32;14.20;84.60
3816;DHT22;1923;48.154;11.536;2024-02-26T12:28:02;13.90;84.20
3816;DHT22;1923;48.154;11.536;2024-02-26T12:30:31;14.00;85.30
3816;DHT22;1923;48.154;11.536;2024-02-26T12:32:59;13.80;86.50
3816;DHT22;1923;48.154;11.536;2024-02-26T12:35:28;13.80;86.60
3816;DHT22;1923;48.154;11.536;2024-02-26T12:37:58;13.80;83.20
3816;DHT22;1923;48.154;11.536;2024-02-26T12:40:26;13.60;86.40
3816;DHT22;1923;48.154;11.536;2024-02-26T12:42:55;13.80;86.10
3816;DHT22;1923;48.154;11.536;2024-02-26T12:45:25;13.80;85.60
3816;DHT22;1923;48.154;11.536;2024-02-26T12:47:55;13.70;85.80
3816;DHT22;1923;48.154;11.536;2024-02-26T12:50:24;13.70;86.60
3816;DHT22;1923;48.154;11.536;2024-02-26T12:52:52;13.70;86.20
3816;DHT22;1923;48.154;11.536;2024-02-26T12:55:21;13.80;87.30
3816;DHT22;1923;48.154;11.536;2024-02-26T12:57:50;13.90;89.00
3816;DHT22;1923;48.154;11.536;2024-02-26T13:00:24;13.90;90.20
3816;DHT22;1923;48.154;11.536;2024-02-26T13:02:55;13.80;87.70
3816;DHT22;1923;48.154;11.536;2024-02-26T13:05:23;13.80;89.30
3816;DHT22;1923;48.154;11.536;2024-02-26T13:07:52;13.90;87.80
3816;DHT22;1923;48.154;11.536;2024-02-26T13:10:20;13.80;86.50
3816;DHT22;1923;48.154;11.536;2024-02-26T13:12:49;13.70;88.50
3816;DHT22;1923;48.154;11.536;2024-02-26T13:15:18;13.60;85.70
3816;DHT22;1923;48.154;11.536;2024-02-26T13:17:47;13.60;87.30
3816;DHT22;1923;48.154;11.536;2024-02-26T13:20:26;13.40;86.80
3816;DHT22;1923;48.154;11.536;2024-02-26T13:23:02;13.30;85.20
3816;DHT22;1923;48.154;11.536;2024-02-26T13:25:32;13.40;84.50
3816;DHT22;1923;48.154;11.536;2024-02-26T13:28:07;13.20;84.00
3816;DHT22;1923;48.154;11.536;2024-02-26T13:30:36;13.00;86.20
3816;DHT22;1923;48.154;11.536;2024-02-26T13:33:09;13.00;85.70
3816;DHT22;1923;48.154;11.536;2024-02-26T13:35:40;13.20;86.00
3816;DHT22;1923;48.154;11.536;2024-02-26T13:38:08;13.20;84.40
3816;DHT22;1923;48.154;11.536;2024-02-26T13:40:38;13.20;84.10
3816;DHT22;1923;48.154;11.536;2024-02-26T13:43:07;13.30;84.80
3816;DHT22;1923;48.154;11.536;2024-02-26T13:45:36;13.30;83.70
3816;DHT22;1923;48.154;11.536;2024-02-26T13:48:05;13.20;84.30
3816;DHT22;1923;48.154;11.536;2024-02-26T13:50:34;13.40;83.60
3816;DHT22;1923;48.154;11.536;2024-02-26T13:53:04;13.40;82.50
3816;DHT22;1923;48.154;11.536;2024-02-26T13:55:32;13.40;81.20
3816;DHT22;1923;48.154;11.536;2024-02-26T13:58:00;13.40;80.70
3816;DHT22;1923;48.154;11.536;2024-02-26T14:00:29;13.40;81.40
3816;DHT22;1923;48.154;11.536;2024-02-26T14:02:58;13.40;80.00
3816;DHT22;1923;48.154;11.536;2024-02-26T14:05:26;13.60;79.90
3816;DHT22;1923;48.154;11.536;2024-02-26T14:07:55;13.60;80.50
3816;DHT22;1923;48.154;11.536;2024-02-26T14:10:25;13.60;79.50
3816;DHT22;1923;48.154;11.536;2024-02-26T14:12:53;13.70;79.60
3816;DHT22;1923;48.154;11.536;2024-02-26T14:15:21;13.70;78.70
3816;DHT22;1923;48.154;11.536;2024-02-26T14:17:51;13.70;78.80
3816;DHT22;1923;48.154;11.536;2024-02-26T14:20:24;13.80;79.00
3816;DHT22;1923;48.154;11.536;2024-02-26T14:22:52;13.80;79.40
3816;DHT22;1923;48.154;11.536;2024-02-26T14:25:21;13.80;79.60
3816;DHT22;1923;48.154;11.536;2024-02-26T14:27:51;13.80;80.50
3816;DHT22;1923;48.154;11.536;2024-02-26T14:30:19;13.60;80.80
3816;DHT22;1923;48.154;11.536;2024-02-26T14:32:47;13.70;81.80
3816;DHT22;1923;48.154;11.536;2024-02-26T14:35:16;13.60;84.00
3816;DHT22;1923;48.154;11.536;2024-02-26T14:37:44;13.50;85.70
3816;DHT22;1923;48.154;11.536;2024-02-26T14:40:15;13.40;87.60
3816;DHT22;1923;48.154;11.536;2024-02-26T14:42:43;13.30;89.40
3816;DHT22;1923;48.154;11.536;2024-02-26T14:45:13;13.30;90.00
3816;DHT22;1923;48.154;11.536;2024-02-26T14:47:41;13.20;90.50
3816;DHT22;1923;48.154;11.536;2024-02-26T14:50:10;13.10;91.20
3816;DHT22;1923;48.154;11.536;2024-02-26T14:52:41;12.90;91.60
3816;DHT22;1923;48.154;11.536;2024-02-26T14:55:16;13.00;92.40
3816;DHT22;1923;48.154;11.536;2024-02-26T14:57:47;12.80;92.60
3816;DHT22;1923;48.154;11.536;2024-02-26T15:00:26;12.60;93.00
3816;DHT22;1923;48.154;11.536;2024-02-26T15:03:04;12.30;93.80
3816;DHT22;1923;48.154;11.536;2024-02-26T15:05:32;12.40;94.40
3816;DHT22;1923;48.154;11.536;2024-02-26T15:08:00;12.50;94.60
3816;DHT22;1923;48.154;11.536;2024-02-26T15:10:29;12.40;94.90
3816;DHT22;1923;48.154;11.536;2024-02-26T15:12:57;12.50;94.80
3816;DHT22;1923;48.154;11.536;2024-02-26T15:15:26;12.50;94.50
3816;DHT22;1923;48.154;11.536;2024-02-26T15:17:54;12.50;94.50
3816;DHT22;1923;48.154;11.536;2024-02-26T15:20:23;12.50;94.50
3816;DHT22;1923;48.154;11.536;2024-02-26T15:22:51;12.40;94.30
3816;DHT22;1923;48.154;11.536;2024-02-26T15:25:19;12.50;93.70
3816;DHT22;1923;48.154;11.536;2024-02-26T15:27:47;12.50;93.50
3816;DHT22;1923;48.154;11.536;2024-02-26T15:30:15;12.50;93.50
3816;DHT22;1923;48.154;11.536;2024-02-26T15:32:46;12.40;93.80
3816;DHT22;1923;48.154;11.536;2024-02-26T15:35:14;12.30;93.70
3816;DHT22;1923;48.154;11.536;2024-02-26T15:37:42;12.30;93.70
3816;DHT22;1923;48.154;11.536;2024-02-26T15:40:11;12.20;93.70
3816;DHT22;1923;48.154;11.536;2024-02-26T15:42:39;12.20;93.60
3816;DHT22;1923;48.154;11.536;2024-02-26T15:45:08;12.10;93.50
3816;DHT22;1923;48.154;11.536;2024-02-26T15:47:36;12.10;93.60
3816;DHT22;1923;48.154;11.536;2024-02-26T15:50:06;12.20;93.60
3816;DHT22;1923;48.154;11.536;2024-02-26T15:52:35;12.10;93.10
3816;DHT22;1923;48.154;11.536;2024-02-26T15:55:03;12.00;93.20
3816;DHT22;1923;48.154;11.536;2024-02-26T15:57:31;12.00;93.70
3816;DHT22;1923;48.154;11.536;2024-02-26T16:00:00;12.10;93.80
3816;DHT22;1923;48.154;11.536;2024-02-26T16:02:32;12.10;93.90
3816;DHT22;1923;48.154;11.536;2024-02-26T16:05:00;12.10;93.90
3816;DHT22;1923;48.154;11.536;2024-02-26T16:07:32;12.10;94.10